Time;durP1;ratioP1;P1;durP2;ratioP2;P2;SDS_P1;SDS_P2;PMS_P1;PMS_P2;Temp;Humidity;BMP_temperature;BMP_pressure;BME280_temperature;BME280_humidity;BME280_pressure;Samples;Min_cycle;Max_cycle;Signal;HPM_P1;HPM_P2
2020/12/25 00:01:30;;;;;;;6.13;4.47;;;5.00;90.00;;;;;;5008631;28;20251;-79
2020/12/25 00:03:58;;;;;;;6.27;4.87;;;5.00;90.00;;;;;;5007983;28;20168;-81
2020/12/25 00:06:26;;;;;;;6.10;4.60;;;5.00;90.10;;;;;;5005159;28;20427;-82
2020/12/25 00:08:52;;;;;;;4.97;3.23;;;5.00;90.00;;;;;;5001562;28;20502;-80
2020/12/25 00:11:18;;;;;;;5.40;3.70;;;5.00;89.80;;;;;;4983974;28;20442;-83
2020/12/25 00:13:46;;;;;;;5.20;3.60;;;5.00;89.90;;;;;;4998941;28;20164;-82
2020/12/25 00:16:12;;;;;;;4.87;3.50;;;5.00;89.80;;;;;;5000892;28;20184;-81
2020/12/25 00:18:41;;;;;;;8.40;3.67;;;5.00;89.90;;;;;;4983718;28;20574;-81
2020/12/25 00:21:07;;;;;;;5.60;4.30;;;5.00;89.90;;;;;;4983575;28;20419;-82
2020/12/25 00:23:32;;;;;;;4.23;3.53;;;5.00;89.70;;;;;;5000892;28;20978;-81
2020/12/25 00:25:58;;;;;;;6.93;4.67;;;5.00;89.50;;;;;;4983568;28;20167;-82
2020/12/25 00:28:24;;;;;;;7.53;4.57;;;5.00;89.70;;;;;;4988932;28;20210;-80
2020/12/25 00:30:49;;;;;;;8.67;5.40;;;5.00;89.70;;;;;;5010679;28;20267;-81
2020/12/25 00:33:15;;;;;;;11.03;4.80;;;5.00;89.70;;;;;;5011556;28;20226;-80
2020/12/25 00:35:43;;;;;;;9.50;4.23;;;5.00;89.80;;;;;;5015056;28;20172;-80
2020/12/25 00:38:09;;;;;;;5.60;4.50;;;5.00;89.90;;;;;;5016955;28;20207;-79
2020/12/25 00:40:42;;;;;;;7.97;4.83;;;5.00;89.70;;;;;;5017425;28;20415;-78
2020/12/25 00:43:07;;;;;;;11.63;5.37;;;5.00;89.70;;;;;;5017827;28;20200;-78
2020/12/25 00:45:35;;;;;;;6.80;5.10;;;5.10;89.80;;;;;;5017091;28;20427;-79
2020/12/25 00:48:01;;;;;;;9.13;4.90;;;5.10;89.70;;;;;;5004015;28;20171;-82
2020/12/25 00:50:27;;;;;;;12.90;4.93;;;5.10;89.70;;;;;;4965899;28;20915;-81
2020/12/25 00:52:53;;;;;;;12.10;4.60;;;5.10;89.60;;;;;;4981717;28;20470;-82
2020/12/25 00:55:19;;;;;;;15.50;4.20;;;5.10;89.40;;;;;;4999834;28;20198;-80
2020/12/25 00:57:45;;;;;;;11.07;5.50;;;5.10;89.00;;;;;;4981647;28;20210;-83
2020/12/25 01:00:14;;;;;;;8.27;5.00;;;5.10;88.90;;;;;;4981802;28;20195;-84
2020/12/25 02:10:57;;;;;;;8.53;5.20;;;5.00;87.10;;;;;;5013571;28;20477;-84
2020/12/25 02:13:23;;;;;;;8.83;5.20;;;4.90;86.10;;;;;;5015569;28;20474;-84
2020/12/25 02:15:49;;;;;;;8.77;4.70;;;4.90;86.20;;;;;;4982213;28;20167;-87
2020/12/25 02:18:14;;;;;;;11.90;5.40;;;4.80;86.30;;;;;;5010953;28;20211;-85
2020/12/25 02:20:40;;;;;;;9.07;5.03;;;4.70;86.40;;;;;;4983854;28;20226;-85
2020/12/25 02:36:35;;;;;;;6.53;4.37;;;4.50;87.30;;;;;;4106175;23;20502;-84
2020/12/25 02:39:04;;;;;;;14.87;5.10;;;4.40;87.30;;;;;;4998463;28;20466;-84
2020/12/25 02:41:29;;;;;;;6.00;3.40;;;4.40;87.20;;;;;;4985611;28;20152;-86
2020/12/25 02:43:55;;;;;;;7.20;4.30;;;4.40;87.20;;;;;;4961057;28;20505;-84
2020/12/25 02:46:21;;;;;;;13.27;4.47;;;4.40;87.30;;;;;;5011694;28;20168;-86
2020/12/25 02:48:47;;;;;;;7.30;4.47;;;4.40;87.50;;;;;;5010817;28;20183;-84
2020/12/25 02:51:17;;;;;;;9.20;5.20;;;4.40;87.30;;;;;;4990079;28;20183;-86
2020/12/25 02:53:43;;;;;;;9.40;5.30;;;4.40;87.00;;;;;;4979609;28;20402;-86
2020/12/25 02:56:08;;;;;;;6.80;5.10;;;4.50;86.50;;;;;;4998009;28;20422;-85
2020/12/25 02:58:34;;;;;;;7.63;5.03;;;4.40;86.20;;;;;;4997308;28;20684;-85
2020/12/25 03:00:59;;;;;;;10.80;6.00;;;4.40;85.90;;;;;;4980006;28;20258;-85
2020/12/25 03:03:25;;;;;;;7.50;5.10;;;4.40;85.80;;;;;;4980199;28;20637;-87
2020/12/25 03:05:51;;;;;;;10.50;5.53;;;4.30;85.70;;;;;;4997707;28;20247;-85
2020/12/25 03:08:16;;;;;;;11.30;5.60;;;4.30;85.70;;;;;;4998299;28;20188;-85
2020/12/25 03:10:42;;;;;;;7.60;5.30;;;4.30;85.90;;;;;;4997030;28;20175;-86
2020/12/25 03:13:07;;;;;;;6.47;4.50;;;4.30;85.90;;;;;;4997925;28;20193;-85
2020/12/25 03:15:33;;;;;;;8.30;4.50;;;4.20;85.70;;;;;;4999062;28;20172;-86
2020/12/25 03:17:59;;;;;;;12.33;4.27;;;4.20;85.40;;;;;;4980394;28;20223;-87
2020/12/25 03:20:24;;;;;;;11.20;4.90;;;4.20;85.40;;;;;;4997145;28;20256;-86
2020/12/25 03:22:50;;;;;;;5.70;4.60;;;4.20;85.40;;;;;;4997366;28;20179;-86
2020/12/25 03:25:15;;;;;;;6.07;4.50;;;4.10;85.50;;;;;;4979078;28;20182;-86
2020/12/25 03:27:41;;;;;;;8.60;4.40;;;4.10;85.40;;;;;;4997236;28;20724;-86
2020/12/25 03:30:07;;;;;;;7.53;4.00;;;4.10;85.50;;;;;;4999050;28;20184;-86
2020/12/25 03:32:32;;;;;;;13.10;4.27;;;4.10;85.60;;;;;;4981714;28;20175;-87
2020/12/25 03:34:58;;;;;;;6.50;4.27;;;4.10;85.60;;;;;;4998695;28;20178;-85
2020/12/25 03:37:26;;;;;;;10.03;4.17;;;4.10;85.60;;;;;;4997813;28;20592;-85
2020/12/25 03:39:52;;;;;;;7.13;3.83;;;4.10;85.60;;;;;;4999740;28;20251;-85
2020/12/25 03:42:18;;;;;;;9.23;4.37;;;4.10;85.30;;;;;;4992952;28;20824;-84
2020/12/25 03:44:43;;;;;;;5.87;3.37;;;4.00;84.90;;;;;;4980508;28;20645;-84
2020/12/25 03:47:09;;;;;;;6.10;3.93;;;4.10;85.20;;;;;;5007049;28;20176;-84
2020/12/25 03:49:34;;;;;;;11.70;4.73;;;4.10;85.20;;;;;;5009345;28;20208;-84
2020/12/25 03:52:00;;;;;;;7.30;4.33;;;4.10;85.30;;;;;;5012150;28;20167;-86
2020/12/25 03:54:26;;;;;;;8.60;4.00;;;4.20;85.30;;;;;;5008305;28;20234;-86
2020/12/25 03:56:51;;;;;;;5.97;3.57;;;4.20;85.30;;;;;;5007294;28;20343;-87
2020/12/25 03:59:17;;;;;;;7.03;3.63;;;4.20;85.30;;;;;;4985175;28;20188;-86
2020/12/25 04:01:42;;;;;;;9.33;3.37;;;4.20;85.20;;;;;;5002432;28;20156;-87
2020/12/25 04:04:08;;;;;;;8.73;3.70;;;4.20;85.30;;;;;;5001264;28;20168;-85
2020/12/25 04:06:34;;;;;;;6.43;3.57;;;4.20;85.40;;;;;;4983826;28;20172;-85
2020/12/25 04:08:59;;;;;;;4.23;3.60;;;4.10;85.40;;;;;;5002038;28;20543;-84
2020/12/25 04:11:25;;;;;;;11.00;2.63;;;4.10;85.70;;;;;;5000925;28;20183;-86
2020/12/25 04:13:50;;;;;;;12.50;3.20;;;4.10;85.60;;;;;;4999401;28;20165;-86
2020/12/25 04:16:16;;;;;;;11.17;2.93;;;4.10;85.70;;;;;;4982109;28;20259;-86
2020/12/25 04:18:42;;;;;;;5.20;2.20;;;4.00;85.80;;;;;;5000634;28;20203;-85
2020/12/25 04:21:07;;;;;;;6.20;2.20;;;4.00;85.80;;;;;;4982651;28;20167;-86
2020/12/25 04:23:33;;;;;;;4.43;2.53;;;4.00;85.90;;;;;;4982800;28;20568;-86
2020/12/25 04:25:58;;;;;;;5.40;4.20;;;3.90;85.80;;;;;;5000594;28;20168;-84
2020/12/25 04:28:24;;;;;;;5.30;2.57;;;3.90;86.00;;;;;;5000393;28;20236;-86
2020/12/25 04:30:50;;;;;;;9.20;2.80;;;4.00;86.20;;;;;;5000040;28;20184;-87
2020/12/25 04:33:15;;;;;;;8.63;3.20;;;4.00;86.10;;;;;;5004425;28;20175;-86
2020/12/25 04:35:41;;;;;;;9.00;2.83;;;4.00;85.90;;;;;;4992121;28;20199;-85
2020/12/25 04:38:06;;;;;;;8.80;2.43;;;4.00;86.00;;;;;;4996170;28;20203;-85
2020/12/25 04:40:33;;;;;;;7.17;2.93;;;4.00;85.80;;;;;;4997907;28;20179;-85
2020/12/25 04:43:01;;;;;;;8.93;2.50;;;4.00;85.80;;;;;;4997089;28;20204;-85
2020/12/25 04:45:26;;;;;;;5.33;2.13;;;4.00;85.80;;;;;;4996616;28;20427;-86
2020/12/25 04:47:52;;;;;;;10.80;2.73;;;4.00;85.70;;;;;;4997878;28;20462;-86
2020/12/25 04:50:18;;;;;;;5.10;2.17;;;4.00;85.40;;;;;;4997254;28;20602;-86
2020/12/25 04:52:48;;;;;;;6.80;2.40;;;4.10;85.40;;;;;;4998186;28;20419;-85
2020/12/25 04:55:14;;;;;;;7.33;2.70;;;4.00;84.30;;;;;;4994735;28;20219;-85
2020/12/25 04:57:40;;;;;;;9.90;2.67;;;4.00;84.70;;;;;;4984688;28;20447;-86
2020/12/25 05:00:21;;;;;;;4.60;2.47;;;3.80;84.90;;;;;;4978089;28;20180;-85
2020/12/25 05:02:49;;;;;;;7.60;2.47;;;3.80;85.40;;;;;;4982713;28;20168;-85
2020/12/25 05:05:17;;;;;;;15.00;2.77;;;3.70;85.40;;;;;;4983710;28;20751;-86
2020/12/25 05:07:45;;;;;;;8.90;3.17;;;3.60;85.60;;;;;;4982481;28;20443;-86
2020/12/25 05:10:12;;;;;;;5.30;3.07;;;3.50;85.90;;;;;;4982606;28;20420;-86
2020/12/25 05:12:38;;;;;;;7.20;3.10;;;3.40;86.20;;;;;;4982005;28;20416;-86
2020/12/25 05:15:06;;;;;;;14.40;3.57;;;3.40;86.50;;;;;;4982977;28;20487;-86
2020/12/25 05:17:33;;;;;;;12.00;4.10;;;3.30;86.90;;;;;;4982301;28;20539;-86
2020/12/25 05:20:02;;;;;;;7.10;2.83;;;3.20;87.10;;;;;;4982090;28;20431;-86
2020/12/25 05:22:28;;;;;;;9.30;2.70;;;3.20;87.50;;;;;;4983996;28;20419;-87
2020/12/25 05:24:53;;;;;;;9.03;3.73;;;3.10;87.60;;;;;;4982171;28;20947;-86
2020/12/25 05:27:23;;;;;;;5.40;2.50;;;3.10;87.80;;;;;;4982568;28;20200;-87
2020/12/25 05:29:49;;;;;;;10.50;3.43;;;3.00;88.10;;;;;;4983212;28;20184;-86
2020/12/25 05:32:15;;;;;;;10.27;2.33;;;3.00;88.30;;;;;;4981086;28;20454;-85
2020/12/25 05:34:42;;;;;;;10.23;2.57;;;2.90;88.60;;;;;;4977944;28;20621;-84
2020/12/25 05:37:08;;;;;;;9.60;3.60;;;2.90;88.90;;;;;;4978817;28;20208;-85
2020/12/25 05:39:37;;;;;;;9.03;2.57;;;2.80;89.00;;;;;;4982122;28;20443;-84
2020/12/25 05:42:05;;;;;;;6.10;2.40;;;2.80;89.40;;;;;;4982020;28;20240;-85
2020/12/25 05:44:45;;;;;;;6.20;3.10;;;2.70;89.50;;;;;;4981357;28;20422;-85
2020/12/25 05:47:13;;;;;;;14.37;2.80;;;2.70;89.70;;;;;;4980036;28;20412;-86
2020/12/25 05:49:39;;;;;;;9.17;2.97;;;2.70;90.00;;;;;;4981948;28;20431;-85
2020/12/25 05:52:05;;;;;;;8.10;2.87;;;2.60;90.00;;;;;;4994334;28;20430;-85
2020/12/25 05:54:32;;;;;;;6.23;2.70;;;2.60;90.10;;;;;;4994693;28;20216;-84
2020/12/25 05:56:58;;;;;;;7.70;3.13;;;2.60;90.20;;;;;;4996076;28;20172;-86
2020/12/25 05:59:29;;;;;;;7.53;3.00;;;2.50;90.20;;;;;;4991083;28;20451;-85
2020/12/25 06:01:59;;;;;;;7.77;2.83;;;2.50;90.30;;;;;;4996968;28;20411;-85
2020/12/25 06:04:33;;;;;;;8.27;3.10;;;2.50;90.30;;;;;;4996822;28;20455;-86
2020/12/25 06:06:59;;;;;;;7.80;3.13;;;2.50;90.40;;;;;;5012183;28;20388;-86
2020/12/25 06:09:34;;;;;;;6.87;3.30;;;2.50;90.50;;;;;;4996897;28;20443;-86
2020/12/25 06:12:00;;;;;;;5.23;2.87;;;2.50;90.60;;;;;;4996708;28;20415;-84
2020/12/25 06:14:26;;;;;;;10.70;2.77;;;2.50;90.60;;;;;;4994858;28;20439;-85
2020/12/25 06:17:14;;;;;;;7.80;2.80;;;2.50;90.60;;;;;;4996216;28;20403;-85
2020/12/25 06:20:01;;;;;;;5.50;2.93;;;2.40;90.60;;;;;;4995578;28;20435;-85
2020/12/25 06:22:41;;;;;;;9.50;2.37;;;2.40;90.70;;;;;;4993222;28;20411;-85
2020/12/25 06:25:08;;;;;;;6.70;2.90;;;2.40;90.70;;;;;;4985366;28;20483;-85
2020/12/25 06:27:35;;;;;;;9.90;3.20;;;2.40;90.80;;;;;;4968451;28;20486;-86
2020/12/25 06:30:04;;;;;;;5.80;3.13;;;2.40;90.80;;;;;;4982403;28;20416;-86
2020/12/25 06:32:31;;;;;;;6.80;2.80;;;2.40;90.90;;;;;;4982810;28;20416;-86
2020/12/25 06:34:59;;;;;;;14.23;3.43;;;2.50;91.00;;;;;;4989344;28;20423;-85
2020/12/25 06:37:30;;;;;;;8.40;2.87;;;2.60;91.00;;;;;;4992174;28;20469;-84
2020/12/25 06:40:06;;;;;;;11.73;2.80;;;2.60;91.00;;;;;;5007074;28;20419;-85
2020/12/25 06:42:35;;;;;;;10.00;3.87;;;2.80;91.00;;;;;;5005986;28;20960;-87
2020/12/25 06:45:04;;;;;;;12.53;3.37;;;2.80;90.90;;;;;;5003086;28;20419;-86
2020/12/25 06:47:34;;;;;;;11.07;2.47;;;2.90;90.70;;;;;;5010195;28;20514;-85
2020/12/25 06:50:08;;;;;;;12.93;2.50;;;2.90;90.70;;;;;;4991139;28;20419;-86
2020/12/25 06:52:53;;;;;;;9.33;3.33;;;2.90;90.50;;;;;;4998217;28;20438;-86
2020/12/25 06:55:21;;;;;;;7.67;2.67;;;3.00;90.90;;;;;;5014534;28;20439;-85
2020/12/25 06:57:49;;;;;;;6.00;2.50;;;3.00;90.60;;;;;;4996406;28;20450;-86
2020/12/25 07:00:19;;;;;;;8.57;2.83;;;2.90;90.50;;;;;;5001999;28;20399;-87
2020/12/25 07:02:44;;;;;;;9.40;3.10;;;2.80;90.20;;;;;;4999469;28;20535;-87
2020/12/25 07:05:10;;;;;;;13.57;3.40;;;2.70;90.40;;;;;;5000802;28;20457;-86
2020/12/25 07:07:36;;;;;;;15.57;2.97;;;2.60;90.40;;;;;;4982293;28;20175;-85
2020/12/25 07:10:09;;;;;;;11.07;3.40;;;2.50;90.60;;;;;;5000778;28;20254;-85
2020/12/25 07:12:36;;;;;;;6.77;2.33;;;2.50;90.90;;;;;;4999608;28;20183;-85
2020/12/25 07:15:07;;;;;;;10.00;3.30;;;2.40;91.00;;;;;;4982489;28;20403;-86
2020/12/25 07:17:33;;;;;;;7.77;2.57;;;2.40;91.00;;;;;;4982914;28;20488;-86
2020/12/25 07:19:59;;;;;;;8.80;3.17;;;2.40;91.20;;;;;;5003478;28;20431;-86
2020/12/25 07:22:24;;;;;;;15.73;3.60;;;2.40;91.30;;;;;;4983657;28;20414;-86
2020/12/25 07:24:50;;;;;;;12.73;2.97;;;2.40;91.30;;;;;;5000471;28;20286;-86
2020/12/25 07:27:16;;;;;;;8.17;2.50;;;2.40;91.30;;;;;;4986344;28;20252;-86
2020/12/25 07:29:44;;;;;;;10.13;3.20;;;2.40;91.30;;;;;;5003442;28;20270;-86
2020/12/25 07:32:14;;;;;;;9.90;5.20;;;2.50;91.40;;;;;;5003586;28;20407;-86
2020/12/25 07:34:40;;;;;;;7.40;3.00;;;2.50;91.30;;;;;;4987004;28;20415;-86
2020/12/25 07:37:07;;;;;;;8.10;2.50;;;2.60;91.20;;;;;;5004000;28;21053;-87
2020/12/25 07:39:33;;;;;;;5.13;3.03;;;2.60;91.20;;;;;;4985363;28;20720;-86
2020/12/25 07:41:58;;;;;;;8.80;4.63;;;2.60;91.10;;;;;;5004699;28;20414;-87
2020/12/25 07:44:24;;;;;;;7.43;3.43;;;2.60;91.10;;;;;;4985760;28;20418;-86
2020/12/25 07:46:51;;;;;;;7.63;3.53;;;2.70;91.00;;;;;;5002665;28;20167;-86
2020/12/25 07:49:19;;;;;;;14.03;5.13;;;2.70;91.00;;;;;;4983755;28;20453;-86
2020/12/25 07:51:47;;;;;;;8.40;4.20;;;2.80;91.00;;;;;;5002629;28;20437;-86
2020/12/25 07:54:14;;;;;;;12.60;5.67;;;2.80;90.90;;;;;;5002415;28;20410;-85
2020/12/25 07:56:40;;;;;;;9.30;3.10;;;2.90;90.90;;;;;;5001246;28;20904;-85
2020/12/25 07:59:05;;;;;;;7.33;3.50;;;3.00;90.70;;;;;;5001345;28;20489;-86
2020/12/25 08:01:33;;;;;;;9.30;3.20;;;3.00;90.60;;;;;;5002220;28;20179;-85
2020/12/25 08:04:00;;;;;;;11.20;3.97;;;3.10;90.40;;;;;;5000332;28;20235;-84
2020/12/25 08:06:29;;;;;;;11.27;3.63;;;3.10;90.40;;;;;;4984358;28;20410;-86
2020/12/25 08:09:05;;;;;;;7.27;3.30;;;3.10;90.20;;;;;;4982282;28;20446;-86
2020/12/25 08:11:31;;;;;;;13.40;4.03;;;3.10;90.20;;;;;;4994719;28;20414;-85
2020/12/25 08:14:05;;;;;;;14.50;4.13;;;3.10;90.10;;;;;;5012539;28;20564;-86
2020/12/25 08:16:32;;;;;;;6.57;3.43;;;3.10;90.10;;;;;;5013090;28;20437;-85
2020/12/25 08:18:58;;;;;;;10.13;3.23;;;3.20;90.20;;;;;;5012480;28;20474;-87
2020/12/25 08:21:30;;;;;;;5.17;3.17;;;3.20;90.10;;;;;;5004379;28;20415;-85
2020/12/25 08:23:56;;;;;;;6.03;2.80;;;3.20;90.20;;;;;;4984576;28;20239;-87
2020/12/25 08:26:32;;;;;;;9.27;5.47;;;3.20;90.20;;;;;;4997996;28;20463;-86
2020/12/25 08:28:59;;;;;;;12.43;4.33;;;3.30;90.20;;;;;;5003109;28;20935;-85
2020/12/25 08:31:25;;;;;;;23.53;4.93;;;3.30;90.20;;;;;;5002784;28;20510;-86
2020/12/25 08:33:55;;;;;;;20.53;8.37;;;3.30;90.10;;;;;;4983743;28;20422;-84
2020/12/25 08:49:54;;;;;;;46.17;15.27;;;3.40;90.20;;;;;;5499852;23;20507;-87
2020/12/25 08:52:21;;;;;;;31.60;12.73;;;3.40;90.20;;;;;;4967846;28;20482;-86
2020/12/25 08:54:57;;;;;;;12.27;5.90;;;3.40;90.10;;;;;;4969056;28;20534;-86
2020/12/25 08:57:23;;;;;;;13.37;5.90;;;3.40;90.00;;;;;;4981884;28;20455;-85
2020/12/25 09:00:09;;;;;;;11.57;5.50;;;3.40;89.90;;;;;;4981858;28;20424;-86
2020/12/25 09:16:06;;;;;;;8.40;4.63;;;4.00;88.80;;;;;;4818113;23;20857;-87
2020/12/25 09:18:32;;;;;;;6.13;3.13;;;4.00;87.80;;;;;;4966361;28;20836;-86
2020/12/25 09:20:58;;;;;;;8.00;2.87;;;4.00;87.90;;;;;;4985028;28;20416;-86
2020/12/25 09:23:23;;;;;;;5.57;2.23;;;3.90;87.80;;;;;;4985796;28;20424;-87
2020/12/25 09:25:49;;;;;;;3.53;2.00;;;3.80;87.80;;;;;;4987745;28;20188;-85
2020/12/25 09:28:15;;;;;;;13.10;3.20;;;3.70;88.00;;;;;;4989510;28;20255;-86
2020/12/25 09:30:40;;;;;;;6.73;2.70;;;3.70;88.50;;;;;;4991272;28;20176;-86
2020/12/25 09:33:06;;;;;;;13.50;3.23;;;3.80;88.60;;;;;;4995892;28;20188;-85
2020/12/25 09:35:32;;;;;;;5.87;2.17;;;3.80;88.10;;;;;;4995524;28;20200;-85
2020/12/25 09:37:57;;;;;;;6.50;2.10;;;3.90;88.60;;;;;;4996747;28;20276;-85
2020/12/25 09:40:23;;;;;;;4.00;1.93;;;3.90;88.10;;;;;;4996438;28;20160;-85
2020/12/25 09:42:49;;;;;;;5.27;1.93;;;4.00;87.70;;;;;;4991407;28;20257;-87
2020/12/25 09:45:14;;;;;;;2.87;1.63;;;4.00;87.50;;;;;;4992576;28;20188;-86
2020/12/25 09:47:40;;;;;;;4.73;2.37;;;4.10;88.00;;;;;;4987411;28;20455;-87
2020/12/25 09:50:07;;;;;;;3.87;1.93;;;4.20;87.60;;;;;;5005566;28;20519;-86
2020/12/25 09:52:34;;;;;;;11.50;2.27;;;4.30;86.70;;;;;;4986035;28;20243;-87
2020/12/25 09:54:59;;;;;;;7.57;2.50;;;4.20;85.90;;;;;;4987818;28;20740;-87
2020/12/25 09:57:25;;;;;;;8.13;3.50;;;4.20;86.10;;;;;;4985561;28;20650;-87
2020/12/25 09:59:53;;;;;;;4.43;2.37;;;4.20;86.10;;;;;;4986945;28;20176;-89
2020/12/25 10:02:19;;;;;;;3.83;2.10;;;4.20;85.90;;;;;;4991163;28;20152;-85
2020/12/25 10:04:44;;;;;;;12.43;3.20;;;4.20;85.30;;;;;;4992333;28;20472;-85
2020/12/25 10:07:10;;;;;;;13.53;4.27;;;4.20;86.00;;;;;;4992062;28;20189;-86
2020/12/25 10:09:36;;;;;;;11.43;3.80;;;4.20;85.50;;;;;;4992868;28;20172;-85
2020/12/25 10:12:01;;;;;;;8.93;3.37;;;4.30;85.80;;;;;;4992897;28;20168;-85
2020/12/25 10:14:28;;;;;;;14.93;3.67;;;4.40;85.20;;;;;;4992307;28;20184;-87
2020/12/25 10:16:54;;;;;;;7.30;3.40;;;4.40;84.50;;;;;;4993358;28;20236;-85
2020/12/25 10:19:19;;;;;;;7.57;3.60;;;4.40;85.00;;;;;;4992816;28;20423;-86
2020/12/25 10:21:45;;;;;;;12.80;4.23;;;4.50;86.10;;;;;;4990855;28;20651;-86
2020/12/25 10:24:11;;;;;;;10.70;4.50;;;4.80;86.50;;;;;;4992460;28;20239;-86
2020/12/25 10:26:36;;;;;;;7.10;4.30;;;5.10;84.60;;;;;;4993394;28;20179;-87
2020/12/25 10:29:02;;;;;;;15.23;6.43;;;5.30;82.40;;;;;;4989571;28;20165;-86
2020/12/25 10:31:28;;;;;;;24.27;6.93;;;5.50;82.10;;;;;;4989826;28;20228;-85
2020/12/25 10:33:53;;;;;;;27.63;10.83;;;5.50;79.90;;;;;;5006892;28;20180;-86
2020/12/25 10:36:25;;;;;;;11.50;6.30;;;5.50;80.30;;;;;;4993413;28;20188;-85
2020/12/25 10:38:51;;;;;;;21.20;7.83;;;5.40;80.70;;;;;;4987402;28;20208;-85
2020/12/25 10:41:17;;;;;;;13.70;6.47;;;5.50;81.10;;;;;;4967691;28;20483;-88
2020/12/25 10:43:45;;;;;;;13.37;4.80;;;5.50;80.90;;;;;;4986872;28;20630;-86
2020/12/25 10:46:10;;;;;;;13.70;5.03;;;5.40;80.00;;;;;;4989637;28;20465;-85
2020/12/25 10:48:36;;;;;;;7.67;4.60;;;5.30;80.60;;;;;;5008950;28;20910;-86
2020/12/25 10:51:01;;;;;;;19.40;6.43;;;5.20;82.40;;;;;;4968147;28;20180;-86
2020/12/25 10:53:27;;;;;;;21.30;7.33;;;5.20;82.10;;;;;;4985505;28;20172;-85
2020/12/25 10:55:53;;;;;;;16.37;5.97;;;5.20;81.90;;;;;;4985672;28;20160;-87
2020/12/25 10:58:18;;;;;;;9.37;5.47;;;5.10;82.20;;;;;;4986000;28;20231;-86
2020/12/25 11:00:44;;;;;;;19.20;5.07;;;5.10;81.80;;;;;;4988848;28;20228;-86
2020/12/25 11:03:10;;;;;;;11.23;5.90;;;5.00;83.00;;;;;;4985255;28;20191;-85
2020/12/25 11:05:36;;;;;;;12.87;4.77;;;5.00;83.20;;;;;;4986826;28;20229;-85
2020/12/25 11:08:01;;;;;;;13.00;4.80;;;5.10;83.50;;;;;;4986274;28;20192;-87
2020/12/25 11:10:27;;;;;;;13.80;8.50;;;5.10;82.70;;;;;;4984175;28;20475;-87
2020/12/25 11:12:53;;;;;;;15.37;6.20;;;5.10;83.10;;;;;;4984636;28;20244;-85
2020/12/25 11:15:19;;;;;;;15.10;6.17;;;5.10;83.80;;;;;;4984113;28;20223;-86
2020/12/25 11:17:44;;;;;;;9.17;4.80;;;5.10;83.50;;;;;;4990112;28;20283;-87
2020/12/25 11:20:10;;;;;;;16.07;6.70;;;5.10;83.50;;;;;;4988079;28;20583;-87
2020/12/25 11:22:35;;;;;;;9.40;5.27;;;5.10;83.30;;;;;;4984208;28;20192;-87
2020/12/25 11:25:01;;;;;;;16.37;5.30;;;5.00;83.30;;;;;;4985722;28;20168;-86
2020/12/25 11:27:27;;;;;;;19.80;6.60;;;5.00;83.40;;;;;;4987098;28;20257;-87
2020/12/25 11:29:52;;;;;;;13.17;5.13;;;5.10;83.20;;;;;;4988163;28;20231;-88
2020/12/25 11:32:19;;;;;;;13.33;6.60;;;5.20;83.30;;;;;;5007151;28;20248;-85
2020/12/25 11:34:44;;;;;;;21.83;7.80;;;5.40;83.80;;;;;;4994605;28;20160;-87
2020/12/25 11:37:10;;;;;;;20.93;9.67;;;5.50;82.90;;;;;;4994199;28;20834;-86
2020/12/25 11:39:36;;;;;;;39.47;11.27;;;5.60;82.50;;;;;;4994436;28;20173;-87
2020/12/25 11:42:02;;;;;;;28.80;8.07;;;5.80;81.70;;;;;;4993816;28;20244;-86
2020/12/25 11:44:27;;;;;;;11.53;5.30;;;5.90;80.90;;;;;;5004188;28;20268;-85
2020/12/25 11:46:58;;;;;;;14.43;5.80;;;5.90;79.40;;;;;;4985886;28;20196;-86
2020/12/25 11:49:24;;;;;;;5.47;4.93;;;5.90;79.30;;;;;;4969234;28;20184;-87
2020/12/25 11:51:53;;;;;;;15.57;4.83;;;5.90;79.60;;;;;;4990632;28;20442;-87
2020/12/25 11:54:19;;;;;;;19.57;5.50;;;5.90;79.20;;;;;;4976724;28;20515;-88
2020/12/25 11:56:44;;;;;;;10.47;4.30;;;5.90;79.80;;;;;;4992659;28;20478;-86
2020/12/25 11:59:10;;;;;;;11.13;4.73;;;5.90;80.00;;;;;;4992965;28;20208;-85
2020/12/25 12:01:37;;;;;;;12.77;4.80;;;5.90;79.70;;;;;;4994576;28;20168;-87
2020/12/25 12:04:03;;;;;;;7.57;3.63;;;5.90;79.40;;;;;;4993661;28;20211;-86
2020/12/25 12:06:29;;;;;;;14.63;4.37;;;5.90;79.40;;;;;;4993663;28;20435;-86
2020/12/25 12:08:55;;;;;;;16.17;3.30;;;5.90;79.40;;;;;;4993759;28;20419;-86
2020/12/25 12:11:20;;;;;;;6.77;3.07;;;5.90;79.20;;;;;;5009809;28;20243;-87
2020/12/25 12:13:46;;;;;;;10.47;3.70;;;5.90;78.90;;;;;;4996291;28;20149;-86
2020/12/25 12:16:17;;;;;;;8.93;4.47;;;5.80;78.70;;;;;;4997953;28;20199;-87
2020/12/25 12:18:43;;;;;;;7.47;3.50;;;5.80;79.20;;;;;;5016038;28;20196;-86
2020/12/25 12:21:10;;;;;;;4.33;2.53;;;5.70;78.90;;;;;;5015059;28;20494;-87
2020/12/25 12:23:35;;;;;;;7.47;3.37;;;5.70;79.40;;;;;;5013478;28;20407;-87
2020/12/25 12:26:01;;;;;;;7.23;2.17;;;5.60;79.30;;;;;;5013685;28;20419;-87
2020/12/25 12:28:27;;;;;;;6.83;2.40;;;5.60;78.90;;;;;;5013460;28;20474;-86
2020/12/25 12:30:53;;;;;;;12.17;2.60;;;5.60;79.60;;;;;;5015032;28;20410;-86
2020/12/25 12:33:18;;;;;;;6.27;2.00;;;5.50;79.40;;;;;;5009193;28;20175;-86
2020/12/25 12:35:44;;;;;;;5.17;2.67;;;5.50;79.60;;;;;;5007622;28;20182;-86
2020/12/25 12:38:10;;;;;;;5.40;2.03;;;5.60;79.50;;;;;;5020145;28;20207;-87
2020/12/25 12:40:35;;;;;;;7.30;2.87;;;5.60;78.80;;;;;;5005422;28;20187;-85
2020/12/25 12:43:01;;;;;;;9.17;2.80;;;5.50;78.80;;;;;;5006123;28;20272;-86
2020/12/25 12:45:27;;;;;;;2.23;1.80;;;5.50;79.40;;;;;;5005397;28;20156;-85
2020/12/25 12:47:52;;;;;;;5.03;2.13;;;5.50;79.20;;;;;;5004859;28;20250;-86
2020/12/25 12:50:18;;;;;;;6.90;2.20;;;5.50;79.20;;;;;;5004381;28;20660;-87
2020/12/25 12:52:43;;;;;;;8.23;2.87;;;5.50;79.50;;;;;;5004966;28;20172;-85
2020/12/25 12:55:10;;;;;;;7.90;3.00;;;5.50;79.00;;;;;;4974805;28;20232;-86
2020/12/25 12:57:35;;;;;;;4.90;1.90;;;5.50;79.40;;;;;;5006738;28;20690;-87
2020/12/25 13:00:04;;;;;;;13.10;3.50;;;5.60;79.60;;;;;;5008199;28;20471;-87
2020/12/25 13:02:29;;;;;;;5.60;2.80;;;5.60;79.20;;;;;;5005953;28;20290;-86
2020/12/25 13:04:55;;;;;;;15.77;7.50;;;5.70;79.20;;;;;;5008718;28;20435;-85
2020/12/25 13:07:21;;;;;;;18.00;8.43;;;5.60;78.20;;;;;;4988527;28;20268;-87
2020/12/25 13:09:46;;;;;;;12.47;3.63;;;5.60;77.50;;;;;;5010406;28;20179;-86
2020/12/25 13:12:12;;;;;;;8.00;3.40;;;5.60;77.50;;;;;;5002036;28;20163;-86
2020/12/25 13:14:38;;;;;;;5.77;3.10;;;5.60;77.70;;;;;;4984396;28;20194;-86
2020/12/25 13:17:04;;;;;;;24.13;13.73;;;5.60;77.10;;;;;;5003297;28;20298;-85
2020/12/25 13:19:30;;;;;;;20.00;8.00;;;5.50;76.90;;;;;;5002876;28;20781;-84
2020/12/25 13:21:56;;;;;;;19.33;7.40;;;5.50;76.70;;;;;;5002263;28;20407;-86
2020/12/25 13:24:28;;;;;;;13.53;7.90;;;5.40;76.50;;;;;;5004538;28;20167;-87
2020/12/25 13:26:55;;;;;;;13.27;6.33;;;5.30;77.10;;;;;;5003025;28;20468;-87
2020/12/25 13:29:20;;;;;;;9.63;5.23;;;5.20;77.60;;;;;;5002434;28;20458;-88
2020/12/25 13:31:46;;;;;;;7.40;5.00;;;5.20;77.70;;;;;;5003366;28;20785;-86
2020/12/25 13:34:12;;;;;;;8.00;5.70;;;5.20;77.80;;;;;;5002159;28;20179;-86
2020/12/25 13:36:37;;;;;;;11.03;5.33;;;5.20;77.90;;;;;;5004330;28;20198;-86
2020/12/25 13:39:04;;;;;;;14.23;5.67;;;5.20;78.20;;;;;;5001173;28;20203;-87
2020/12/25 13:41:30;;;;;;;16.37;7.77;;;5.20;77.80;;;;;;5001477;28;20163;-87
2020/12/25 13:43:55;;;;;;;9.47;6.37;;;5.30;77.50;;;;;;5017531;28;20422;-88
2020/12/25 13:46:21;;;;;;;11.87;6.23;;;5.30;76.60;;;;;;5002046;28;20231;-87
2020/12/25 13:48:48;;;;;;;15.03;5.50;;;5.30;76.80;;;;;;5005169;28;20522;-87
2020/12/25 13:51:23;;;;;;;15.20;5.60;;;5.30;76.50;;;;;;5004556;28;20493;-86
2020/12/25 13:53:50;;;;;;;9.30;4.37;;;5.40;76.30;;;;;;5003839;28;20415;-86
2020/12/25 13:56:16;;;;;;;7.50;4.53;;;5.40;76.40;;;;;;4986653;28;20433;-88
2020/12/25 13:58:42;;;;;;;11.47;4.83;;;5.30;76.20;;;;;;5004448;28;20454;-87
2020/12/25 14:01:09;;;;;;;8.00;4.73;;;5.30;76.60;;;;;;5004321;28;20751;-85
2020/12/25 14:03:39;;;;;;;10.30;4.37;;;5.30;77.10;;;;;;5003725;28;20180;-87
2020/12/25 14:06:05;;;;;;;9.30;4.70;;;5.30;77.30;;;;;;5007845;28;20396;-87
2020/12/25 14:08:32;;;;;;;5.77;3.43;;;5.20;77.60;;;;;;5008236;28;20495;-87
2020/12/25 14:10:58;;;;;;;9.90;2.80;;;5.20;78.20;;;;;;5008161;28;20845;-87
2020/12/25 14:13:24;;;;;;;5.37;3.10;;;5.10;78.70;;;;;;5009012;28;20422;-86
2020/12/25 14:15:50;;;;;;;5.40;2.73;;;5.10;79.40;;;;;;4992983;28;20437;-86
2020/12/25 14:18:16;;;;;;;4.47;2.77;;;5.10;80.00;;;;;;5010301;28;20462;-87
2020/12/25 14:20:42;;;;;;;13.73;2.20;;;5.10;80.20;;;;;;5008818;28;20247;-88
2020/12/25 14:23:08;;;;;;;8.17;2.57;;;5.20;80.50;;;;;;5010377;28;20410;-89
2020/12/25 14:25:35;;;;;;;9.07;2.57;;;5.30;80.60;;;;;;4991911;28;20403;-87
2020/12/25 14:28:00;;;;;;;29.40;8.63;;;5.30;80.60;;;;;;5007608;28;20442;-86
2020/12/25 14:30:27;;;;;;;20.23;8.83;;;5.40;80.50;;;;;;5008872;28;20411;-87
2020/12/25 14:32:53;;;;;;;19.83;6.87;;;5.40;80.30;;;;;;5015257;28;20211;-86
2020/12/25 14:35:20;;;;;;;10.27;2.40;;;5.40;80.30;;;;;;5015592;28;20429;-86
2020/12/25 14:37:45;;;;;;;8.57;3.80;;;5.40;80.30;;;;;;5015985;28;20522;-86
2020/12/25 14:40:11;;;;;;;6.93;2.30;;;5.40;80.40;;;;;;5015524;28;20469;-86